Pearl Of Scandinavia — OWFU2 — position and weather

sailwx.info

Track history (hours):
 
Tides and Currents Weather Stations Pressure Air Temp Water Temp Dewpoint Dewpoint Depression Visibility Wind Speed Wind Dir Waves Ship Positions

Pearl Of Scandinavia

Last reported at 2015-Jul-29 23:34 UTC. Time now 2015-Jul-30 00:01 UTC.
Position N 57°34' E 011°26'.

Length 176.4 m; beam 34 m; draft 6.215 m.

Type: Ship. MMSI: 219945000.

Date/timePositionNaut miles runAvg speedWind from/ knotsBaromVisibWave heightAir tempDewpointWater temp
2015-Jul-29 23:34N 57°34' E 011°26'1615.9
2015-Jul-29 22:33N 57°50' E 011°17'1616.1
2015-Jul-29 21:33N 58°05' E 011°08'1615.7
2015-Jul-29 20:33N 58°20' E 010°60'1616.2
2015-Jul-29 19:33N 58°36' E 010°51'1616.4
2015-Jul-29 18:34N 58°52' E 010°44'1716.9
2015-Jul-29 17:33N 59°08' E 010°39'1717.3
2015-Jul-29 16:33N 59°25' E 010°33'29 3.1
2015-Jul-29 07:21N 59°54' E 010°41'2514.1
2015-Jul-29 05:33N 59°29' E 010°34'1615.7
2015-Jul-29 04:33N 59°13' E 010°38'1616.1
2015-Jul-29 03:33N 58°57' E 010°42'1616.0
2015-Jul-29 02:33N 58°41' E 010°46'1916.5
2015-Jul-29 01:25N 58°23' E 010°56'1416.6
2015-Jul-29 00:33N 58°09' E 011°04'1616.4
2015-Jul-28 23:33N 57°54' E 011°14'1616.4
2015-Jul-28 22:33N 57°38' E 011°23'1616.5
2015-Jul-28 21:33N 57°23' E 011°33'1916.2
2015-Jul-28 20:24N 57°05' E 011°43'1315.8
2015-Jul-28 19:33N 56°52' E 011°52'1515.5
2015-Jul-28 18:33N 56°39' E 012°07'1615.7
2015-Jul-28 17:33N 56°25' E 012°19'1616.0
2015-Jul-28 16:33N 56°10' E 012°30'1717.0
2015-Jul-28 15:34N 55°55' E 012°44'1413.8
2015-Jul-28 14:34N 55°42' E 012°36'0 0.0
2015-Jul-28 13:32N 55°42' E 012°36'0 0.0
2015-Jul-28 12:32N 55°42' E 012°36'0 0.0
2015-Jul-28 11:32N 55°42' E 012°36'0 0.0
2015-Jul-28 10:32N 55°42' E 012°36'0 0.0
2015-Jul-28 09:32N 55°42' E 012°36'0 0.0
2015-Jul-28 08:32N 55°42' E 012°36'0 0.4
2015-Jul-28 07:34N 55°42' E 012°36'1111.1
2015-Jul-28 06:33N 55°53' E 012°40'1413.6
2015-Jul-28 05:33N 56°06' E 012°33'1514.9
2015-Jul-28 04:34N 56°20' E 012°22'1615.4
2015-Jul-28 03:33N 56°35' E 012°15'1616.0
2015-Jul-28 02:33N 56°50' E 012°09'1616.0
2015-Jul-28 01:33N 57°06' E 011°59'1616.4
2015-Jul-28 00:33N 57°20' E 011°45'1616.3
2015-Jul-27 23:33N 57°34' E 011°30'1717.2
2015-Jul-27 22:33N 57°50' E 011°18'1616.2
2015-Jul-27 21:34N 58°05' E 011°07'1616.4
2015-Jul-27 20:34N 58°21' E 010°58'1616.3
2015-Jul-27 19:34N 58°37' E 010°50'1716.8
2015-Jul-27 18:33N 58°53' E 010°44'1717.0
2015-Jul-27 17:33N 59°10' E 010°38'1716.6
2015-Jul-27 16:33N 59°26' E 010°33'27 3.0
2015-Jul-27 07:30N 59°54' E 010°41'1914.3
2015-Jul-27 06:11N 59°35' E 010°38'1117.6
2015-Jul-27 05:33N 59°24' E 010°34'1817.6
2015-Jul-27 04:34N 59°07' E 010°40'2217.4
2015-Jul-27 03:19N 58°45' E 010°45'1418.0
2015-Jul-27 02:34N 58°32' E 010°47'2018.0
2015-Jul-27 01:25N 58°11' E 010°50'1517.7
2015-Jul-27 00:34N 57°56' E 010°52'1716.4
2015-Jul-26 23:33N 57°40' E 011°02'1716.9
2015-Jul-26 22:33N 57°29' E 011°25'1717.4
2015-Jul-26 21:34N 57°13' E 011°37'1817.5
2015-Jul-26 20:32N 56°56' E 011°49'1717.2
2015-Jul-26 19:33N 56°40' E 011°58'3215.8
2015-Jul-26 17:33N 56°12' E 012°24'1514.9
2015-Jul-26 16:34N 56°00' E 012°41'1514.8
2015-Jul-26 15:34N 55°46' E 012°41'5 4.6
2015-Jul-26 14:33N 55°42' E 012°36'0 0.0
2015-Jul-26 13:33N 55°42' E 012°36'0 0.0
2015-Jul-26 12:33N 55°42' E 012°36'0 0.0
2015-Jul-26 11:33N 55°42' E 012°36'0 0.0
2015-Jul-26 10:33N 55°42' E 012°36'0 0.0
2015-Jul-26 09:33N 55°42' E 012°36'0 0.0
2015-Jul-26 08:28N 55°42' E 012°36'0 0.4
2015-Jul-26 07:34N 55°42' E 012°36'1110.8
2015-Jul-26 06:34N 55°53' E 012°40'1514.8
2015-Jul-26 05:33N 56°07' E 012°32'1515.3
2015-Jul-26 04:33N 56°21' E 012°22'1515.4
2015-Jul-26 03:33N 56°36' E 012°15'1515.4
2015-Jul-26 02:33N 56°51' E 012°09'1715.6
2015-Jul-26 01:28N 57°07' E 011°58'1516.0
2015-Jul-26 00:34N 57°20' E 011°45'1716.5
2015-Jul-25 23:34N 57°34' E 011°29'1716.9
2015-Jul-25 22:34N 57°50' E 011°17'1716.7
2015-Jul-25 21:34N 58°06' E 011°08'1616.3
2015-Jul-25 20:33N 58°21' E 010°59'1616.1
2015-Jul-25 19:34N 58°37' E 010°50'1616.4
2015-Jul-25 18:33N 58°53' E 010°44'1716.5
2015-Jul-25 17:33N 59°09' E 010°39'1717.1
2015-Jul-25 16:34N 59°26' E 010°33'28 3.0
2015-Jul-25 07:21N 59°54' E 010°41'1314.2
2015-Jul-25 06:27N 59°41' E 010°36'1314.9
2015-Jul-25 05:33N 59°28' E 010°34'1615.6
2015-Jul-25 04:33N 59°12' E 010°38'1615.7
2015-Jul-25 03:33N 58°57' E 010°42'1915.8
2015-Jul-25 02:22N 58°38' E 010°48'1616.3
2015-Jul-25 01:25N 58°23' E 010°57'1416.4
2015-Jul-25 00:33N 58°10' E 011°05'1716.8
2015-Jul-24 23:33N 57°54' E 011°14'1616.0
2015-Jul-24 22:33N 57°39' E 011°23'1615.8
2015-Jul-24 21:33N 57°24' E 011°32'7915.9
2015-Jul-24 16:33N 56°11' E 012°30'1716.6
2015-Jul-24 15:33N 55°56' E 012°43'1414.4
2015-Jul-24 14:33N 55°42' E 012°36'0 0.4
2015-Jul-24 13:33N 55°42' E 012°36'0 0.0
2015-Jul-24 12:33N 55°42' E 012°36'0 0.0
2015-Jul-24 11:32N 55°42' E 012°36'0 0.0
2015-Jul-24 10:33N 55°42' E 012°36'0 0.0
2015-Jul-24 09:33N 55°42' E 012°36'0 0.0
2015-Jul-24 08:33N 55°42' E 012°36'5 4.8
2015-Jul-24 07:33N 55°46' E 012°41'1616.2
2015-Jul-24 06:33N 56°02' E 012°38'1717.3
2015-Jul-24 05:33N 56°17' E 012°24'1918.9
2015-Jul-24 04:33N 56°36' E 012°16'1818.3
2015-Jul-24 03:33N 56°53' E 012°07'1918.9
2015-Jul-24 02:33N 57°11' E 011°55'1818.3
2015-Jul-24 01:33N 57°25' E 011°33'1818.4
2015-Jul-24 00:33N 57°38' E 011°08'1919.0
2015-Jul-23 23:33N 57°51' E 010°42'8 8.3
2015-Jul-23 22:33N 57°56' E 010°55'1515.5
2015-Jul-23 21:33N 58°09' E 010°41'1615.7
2015-Jul-23 20:33N 58°25' E 010°41'1515.2
2015-Jul-23 19:33N 58°40' E 010°41'1615.8
2015-Jul-23 18:33N 58°56' E 010°41'1616.1
2015-Jul-23 17:33N 59°12' E 010°38'1717.0
2015-Jul-23 16:33N 59°29' E 010°34'1615.2
2015-Jul-23 15:28N 59°45' E 010°33'9 1.2
2015-Jul-23 07:23N 59°54' E 010°41'2714.7
2015-Jul-23 05:33N 59°27' E 010°34'1616.2
2015-Jul-23 04:34N 59°11' E 010°39'1616.2
2015-Jul-23 03:33N 58°55' E 010°42'1716.0
2015-Jul-23 02:28N 58°38' E 010°48'1716.3
2015-Jul-23 01:25N 58°21' E 010°58'1416.8
2015-Jul-23 00:33N 58°08' E 011°06'1616.5
2015-Jul-22 23:33N 57°52' E 011°16'1616.0
2015-Jul-22 22:33N 57°37' E 011°24'1616.0
2015-Jul-22 21:33N 57°22' E 011°33'1616.0
2015-Jul-22 20:33N 57°06' E 011°42'1615.8
2015-Jul-22 19:33N 56°51' E 011°52'1615.7
2015-Jul-22 18:33N 56°38' E 012°07'1615.9
2015-Jul-22 17:33N 56°24' E 012°20'1616.4
2015-Jul-22 16:33N 56°09' E 012°31'1615.7
2015-Jul-22 15:33N 55°55' E 012°44'1313.0
2015-Jul-22 14:33N 55°42' E 012°36'0 0.4
2015-Jul-22 13:33N 55°42' E 012°36'0 0.0
2015-Jul-22 12:33N 55°42' E 012°36'0 0.0
2015-Jul-22 11:31N 55°42' E 012°36'0 0.0
2015-Jul-22 10:33N 55°42' E 012°36'0 0.0
2015-Jul-22 09:33N 55°42' E 012°36'0 0.0
2015-Jul-22 08:33N 55°42' E 012°36'2 2.3
2015-Jul-22 07:33N 55°43' E 012°39'1010.2
2015-Jul-22 06:33N 55°54' E 012°40'1515.2
2015-Jul-22 05:34N 56°08' E 012°31'1716.6
2015-Jul-22 04:33N 56°24' E 012°20'1716.9
2015-Jul-22 03:33N 56°40' E 012°11'1717.2
2015-Jul-22 02:33N 56°56' E 012°02'1717.1
2015-Jul-22 01:33N 57°13' E 011°52'1717.2
2015-Jul-22 00:33N 57°27' E 011°36'1717.1
2015-Jul-21 23:33N 57°42' E 011°21'1716.9
2015-Jul-21 22:33N 57°58' E 011°12'1616.1
2015-Jul-21 21:33N 58°14' E 011°03'1616.0
2015-Jul-21 20:33N 58°29' E 010°55'1716.6
2015-Jul-21 19:33N 58°45' E 010°46'1616.4
2015-Jul-21 18:33N 59°01' E 010°41'1615.5
2015-Jul-21 17:33N 59°17' E 010°36'1514.9
2015-Jul-21 16:33N 59°32' E 010°35'22 2.4
2015-Jul-21 07:19N 59°54' E 010°41'2614.5
2015-Jul-21 05:34N 59°28' E 010°34'1616.4
2015-Jul-21 04:34N 59°12' E 010°39'1716.5
2015-Jul-21 03:33N 58°55' E 010°43'1716.6
2015-Jul-21 02:31N 58°38' E 010°47'1916.8
2015-Jul-21 01:24N 58°21' E 010°58'1416.9
2015-Jul-21 00:33N 58°07' E 011°07'1717.3
2015-Jul-20 23:33N 57°50' E 011°17'1716.6
2015-Jul-20 22:33N 57°35' E 011°27'1616.2
2015-Jul-20 21:33N 57°19' E 011°35'1816.2
2015-Jul-20 20:26N 57°02' E 011°45'1315.2
2015-Jul-20 19:34N 56°50' E 011°57'1615.8
2015-Jul-20 18:33N 56°36' E 012°10'2415.7
2015-Jul-20 17:04N 56°14' E 012°27'815.5
2015-Jul-20 16:33N 56°07' E 012°33'1515.1
2015-Jul-20 15:34N 55°54' E 012°44'1312.7
2015-Jul-20 14:34N 55°42' E 012°36'0 0.0
2015-Jul-20 13:33N 55°42' E 012°36'0 0.0
2015-Jul-20 12:33N 55°42' E 012°36'0 0.0
2015-Jul-20 11:33N 55°42' E 012°36'0 0.0
2015-Jul-20 10:33N 55°42' E 012°36'0 0.0
2015-Jul-20 09:33N 55°42' E 012°36'0 0.0
2015-Jul-20 08:33N 55°42' E 012°36'0 0.3
2015-Jul-20 07:33N 55°42' E 012°36'1110.9
2015-Jul-20 06:33N 55°53' E 012°40'1414.4
2015-Jul-20 05:33N 56°07' E 012°32'1615.9
2015-Jul-20 04:33N 56°21' E 012°21'1616.0
2015-Jul-20 03:33N 56°37' E 012°12'1716.6
2015-Jul-20 02:33N 56°52' E 012°03'1716.5
2015-Jul-20 01:33N 57°08' E 011°55'1716.5
2015-Jul-20 00:33N 57°23' E 011°41'  
Track history (hours):
 
Tides and Currents Weather Stations Pressure Air Temp Water Temp Dewpoint Dewpoint Depression Visibility Wind Speed Wind Dir Waves Ship Positions

Pearl Of Scandinavia

Last reported at 2015-Jul-29 23:34 UTC. Time now 2015-Jul-30 00:01 UTC.
Position N 57°34' E 011°26'.

Length 176.4 m; beam 34 m; draft 6.215 m.

Type: Ship. MMSI: 219945000.

Date/timePositionNaut miles runAvg speedWind from/ knotsBaromVisibWave heightAir tempDewpointWater temp
2015-Jul-29 23:34N 57°34' E 011°26'1615.9
2015-Jul-29 22:33N 57°50' E 011°17'1616.1
2015-Jul-29 21:33N 58°05' E 011°08'1615.7
2015-Jul-29 20:33N 58°20' E 010°60'1616.2
2015-Jul-29 19:33N 58°36' E 010°51'1616.4
2015-Jul-29 18:34N 58°52' E 010°44'1716.9
2015-Jul-29 17:33N 59°08' E 010°39'1717.3
2015-Jul-29 16:33N 59°25' E 010°33'29 3.1
2015-Jul-29 07:21N 59°54' E 010°41'2514.1
2015-Jul-29 05:33N 59°29' E 010°34'1615.7
2015-Jul-29 04:33N 59°13' E 010°38'1616.1
2015-Jul-29 03:33N 58°57' E 010°42'1616.0
2015-Jul-29 02:33N 58°41' E 010°46'1916.5
2015-Jul-29 01:25N 58°23' E 010°56'1416.6
2015-Jul-29 00:33N 58°09' E 011°04'1616.4
2015-Jul-28 23:33N 57°54' E 011°14'1616.4
2015-Jul-28 22:33N 57°38' E 011°23'1616.5
2015-Jul-28 21:33N 57°23' E 011°33'1916.2
2015-Jul-28 20:24N 57°05' E 011°43'1315.8
2015-Jul-28 19:33N 56°52' E 011°52'1515.5
2015-Jul-28 18:33N 56°39' E 012°07'1615.7
2015-Jul-28 17:33N 56°25' E 012°19'1616.0
2015-Jul-28 16:33N 56°10' E 012°30'1717.0
2015-Jul-28 15:34N 55°55' E 012°44'1413.8
2015-Jul-28 14:34N 55°42' E 012°36'0 0.0
2015-Jul-28 13:32N 55°42' E 012°36'0 0.0
2015-Jul-28 12:32N 55°42' E 012°36'0 0.0
2015-Jul-28 11:32N 55°42' E 012°36'0 0.0
2015-Jul-28 10:32N 55°42' E 012°36'0 0.0
2015-Jul-28 09:32N 55°42' E 012°36'0 0.0
2015-Jul-28 08:32N 55°42' E 012°36'0 0.4
2015-Jul-28 07:34N 55°42' E 012°36'1111.1
2015-Jul-28 06:33N 55°53' E 012°40'1413.6
2015-Jul-28 05:33N 56°06' E 012°33'1514.9
2015-Jul-28 04:34N 56°20' E 012°22'1615.4
2015-Jul-28 03:33N 56°35' E 012°15'1616.0
2015-Jul-28 02:33N 56°50' E 012°09'1616.0
2015-Jul-28 01:33N 57°06' E 011°59'1616.4
2015-Jul-28 00:33N 57°20' E 011°45'1616.3
2015-Jul-27 23:33N 57°34' E 011°30'1717.2
2015-Jul-27 22:33N 57°50' E 011°18'1616.2
2015-Jul-27 21:34N 58°05' E 011°07'1616.4
2015-Jul-27 20:34N 58°21' E 010°58'1616.3
2015-Jul-27 19:34N 58°37' E 010°50'1716.8
2015-Jul-27 18:33N 58°53' E 010°44'1717.0
2015-Jul-27 17:33N 59°10' E 010°38'1716.6
2015-Jul-27 16:33N 59°26' E 010°33'27 3.0
2015-Jul-27 07:30N 59°54' E 010°41'1914.3
2015-Jul-27 06:11N 59°35' E 010°38'1117.6
2015-Jul-27 05:33N 59°24' E 010°34'1817.6
2015-Jul-27 04:34N 59°07' E 010°40'2217.4
2015-Jul-27 03:19N 58°45' E 010°45'1418.0
2015-Jul-27 02:34N 58°32' E 010°47'2018.0
2015-Jul-27 01:25N 58°11' E 010°50'1517.7
2015-Jul-27 00:34N 57°56' E 010°52'1716.4
2015-Jul-26 23:33N 57°40' E 011°02'1716.9
2015-Jul-26 22:33N 57°29' E 011°25'1717.4
2015-Jul-26 21:34N 57°13' E 011°37'1817.5
2015-Jul-26 20:32N 56°56' E 011°49'1717.2
2015-Jul-26 19:33N 56°40' E 011°58'3215.8
2015-Jul-26 17:33N 56°12' E 012°24'1514.9
2015-Jul-26 16:34N 56°00' E 012°41'1514.8
2015-Jul-26 15:34N 55°46' E 012°41'5 4.6
2015-Jul-26 14:33N 55°42' E 012°36'0 0.0
2015-Jul-26 13:33N 55°42' E 012°36'0 0.0
2015-Jul-26 12:33N 55°42' E 012°36'0 0.0
2015-Jul-26 11:33N 55°42' E 012°36'0 0.0
2015-Jul-26 10:33N 55°42' E 012°36'0 0.0
2015-Jul-26 09:33N 55°42' E 012°36'0 0.0
2015-Jul-26 08:28N 55°42' E 012°36'0 0.4
2015-Jul-26 07:34N 55°42' E 012°36'1110.8
2015-Jul-26 06:34N 55°53' E 012°40'1514.8
2015-Jul-26 05:33N 56°07' E 012°32'1515.3
2015-Jul-26 04:33N 56°21' E 012°22'1515.4
2015-Jul-26 03:33N 56°36' E 012°15'1515.4
2015-Jul-26 02:33N 56°51' E 012°09'1715.6
2015-Jul-26 01:28N 57°07' E 011°58'1516.0
2015-Jul-26 00:34N 57°20' E 011°45'1716.5
2015-Jul-25 23:34N 57°34' E 011°29'1716.9
2015-Jul-25 22:34N 57°50' E 011°17'1716.7
2015-Jul-25 21:34N 58°06' E 011°08'1616.3
2015-Jul-25 20:33N 58°21' E 010°59'1616.1
2015-Jul-25 19:34N 58°37' E 010°50'1616.4
2015-Jul-25 18:33N 58°53' E 010°44'1716.5
2015-Jul-25 17:33N 59°09' E 010°39'1717.1
2015-Jul-25 16:34N 59°26' E 010°33'28 3.0
2015-Jul-25 07:21N 59°54' E 010°41'1314.2
2015-Jul-25 06:27N 59°41' E 010°36'1314.9
2015-Jul-25 05:33N 59°28' E 010°34'1615.6
2015-Jul-25 04:33N 59°12' E 010°38'1615.7
2015-Jul-25 03:33N 58°57' E 010°42'1915.8
2015-Jul-25 02:22N 58°38' E 010°48'1616.3
2015-Jul-25 01:25N 58°23' E 010°57'1416.4
2015-Jul-25 00:33N 58°10' E 011°05'1716.8
2015-Jul-24 23:33N 57°54' E 011°14'1616.0
2015-Jul-24 22:33N 57°39' E 011°23'1615.8
2015-Jul-24 21:33N 57°24' E 011°32'7915.9
2015-Jul-24 16:33N 56°11' E 012°30'1716.6
2015-Jul-24 15:33N 55°56' E 012°43'1414.4
2015-Jul-24 14:33N 55°42' E 012°36'0 0.4
2015-Jul-24 13:33N 55°42' E 012°36'0 0.0
2015-Jul-24 12:33N 55°42' E 012°36'0 0.0
2015-Jul-24 11:32N 55°42' E 012°36'0 0.0
2015-Jul-24 10:33N 55°42' E 012°36'0 0.0
2015-Jul-24 09:33N 55°42' E 012°36'0 0.0
2015-Jul-24 08:33N 55°42' E 012°36'5 4.8
2015-Jul-24 07:33N 55°46' E 012°41'1616.2
2015-Jul-24 06:33N 56°02' E 012°38'1717.3
2015-Jul-24 05:33N 56°17' E 012°24'1918.9
2015-Jul-24 04:33N 56°36' E 012°16'1818.3
2015-Jul-24 03:33N 56°53' E 012°07'1918.9
2015-Jul-24 02:33N 57°11' E 011°55'1818.3
2015-Jul-24 01:33N 57°25' E 011°33'1818.4
2015-Jul-24 00:33N 57°38' E 011°08'1919.0
2015-Jul-23 23:33N 57°51' E 010°42'8 8.3
2015-Jul-23 22:33N 57°56' E 010°55'1515.5
2015-Jul-23 21:33N 58°09' E 010°41'1615.7
2015-Jul-23 20:33N 58°25' E 010°41'1515.2
2015-Jul-23 19:33N 58°40' E 010°41'1615.8
2015-Jul-23 18:33N 58°56' E 010°41'1616.1
2015-Jul-23 17:33N 59°12' E 010°38'1717.0
2015-Jul-23 16:33N 59°29' E 010°34'1615.2
2015-Jul-23 15:28N 59°45' E 010°33'9 1.2
2015-Jul-23 07:23N 59°54' E 010°41'2714.7
2015-Jul-23 05:33N 59°27' E 010°34'1616.2
2015-Jul-23 04:34N 59°11' E 010°39'1616.2
2015-Jul-23 03:33N 58°55' E 010°42'1716.0
2015-Jul-23 02:28N 58°38' E 010°48'1716.3
2015-Jul-23 01:25N 58°21' E 010°58'1416.8
2015-Jul-23 00:33N 58°08' E 011°06'1616.5
2015-Jul-22 23:33N 57°52' E 011°16'1616.0
2015-Jul-22 22:33N 57°37' E 011°24'1616.0
2015-Jul-22 21:33N 57°22' E 011°33'1616.0
2015-Jul-22 20:33N 57°06' E 011°42'1615.8
2015-Jul-22 19:33N 56°51' E 011°52'1615.7
2015-Jul-22 18:33N 56°38' E 012°07'1615.9
2015-Jul-22 17:33N 56°24' E 012°20'1616.4
2015-Jul-22 16:33N 56°09' E 012°31'1615.7
2015-Jul-22 15:33N 55°55' E 012°44'1313.0
2015-Jul-22 14:33N 55°42' E 012°36'0 0.4
2015-Jul-22 13:33N 55°42' E 012°36'0 0.0
2015-Jul-22 12:33N 55°42' E 012°36'0 0.0
2015-Jul-22 11:31N 55°42' E 012°36'0 0.0
2015-Jul-22 10:33N 55°42' E 012°36'0 0.0
2015-Jul-22 09:33N 55°42' E 012°36'0 0.0
2015-Jul-22 08:33N 55°42' E 012°36'2 2.3
2015-Jul-22 07:33N 55°43' E 012°39'1010.2
2015-Jul-22 06:33N 55°54' E 012°40'1515.2
2015-Jul-22 05:34N 56°08' E 012°31'1716.6
2015-Jul-22 04:33N 56°24' E 012°20'1716.9
2015-Jul-22 03:33N 56°40' E 012°11'1717.2
2015-Jul-22 02:33N 56°56' E 012°02'1717.1
2015-Jul-22 01:33N 57°13' E 011°52'1717.2
2015-Jul-22 00:33N 57°27' E 011°36'1717.1
2015-Jul-21 23:33N 57°42' E 011°21'1716.9
2015-Jul-21 22:33N 57°58' E 011°12'1616.1
2015-Jul-21 21:33N 58°14' E 011°03'1616.0
2015-Jul-21 20:33N 58°29' E 010°55'1716.6
2015-Jul-21 19:33N 58°45' E 010°46'1616.4
2015-Jul-21 18:33N 59°01' E 010°41'1615.5
2015-Jul-21 17:33N 59°17' E 010°36'1514.9
2015-Jul-21 16:33N 59°32' E 010°35'22 2.4
2015-Jul-21 07:19N 59°54' E 010°41'2614.5
2015-Jul-21 05:34N 59°28' E 010°34'1616.4
2015-Jul-21 04:34N 59°12' E 010°39'1716.5
2015-Jul-21 03:33N 58°55' E 010°43'1716.6
2015-Jul-21 02:31N 58°38' E 010°47'1916.8
2015-Jul-21 01:24N 58°21' E 010°58'1416.9
2015-Jul-21 00:33N 58°07' E 011°07'1717.3
2015-Jul-20 23:33N 57°50' E 011°17'1716.6
2015-Jul-20 22:33N 57°35' E 011°27'1616.2
2015-Jul-20 21:33N 57°19' E 011°35'1816.2
2015-Jul-20 20:26N 57°02' E 011°45'1315.2
2015-Jul-20 19:34N 56°50' E 011°57'1615.8
2015-Jul-20 18:33N 56°36' E 012°10'2415.7
2015-Jul-20 17:04N 56°14' E 012°27'815.5
2015-Jul-20 16:33N 56°07' E 012°33'1515.1
2015-Jul-20 15:34N 55°54' E 012°44'1312.7
2015-Jul-20 14:34N 55°42' E 012°36'0 0.0
2015-Jul-20 13:33N 55°42' E 012°36'0 0.0
2015-Jul-20 12:33N 55°42' E 012°36'0 0.0
2015-Jul-20 11:33N 55°42' E 012°36'0 0.0
2015-Jul-20 10:33N 55°42' E 012°36'0 0.0
2015-Jul-20 09:33N 55°42' E 012°36'0 0.0
2015-Jul-20 08:33N 55°42' E 012°36'0 0.3
2015-Jul-20 07:33N 55°42' E 012°36'1110.9
2015-Jul-20 06:33N 55°53' E 012°40'1414.4
2015-Jul-20 05:33N 56°07' E 012°32'1615.9
2015-Jul-20 04:33N 56°21' E 012°21'1616.0
2015-Jul-20 03:33N 56°37' E 012°12'1716.6
2015-Jul-20 02:33N 56°52' E 012°03'1716.5
2015-Jul-20 01:33N 57°08' E 011°55'1716.5
2015-Jul-20 00:33N 57°23' E 011°41'  

Dump ship's entire track history